sensor_id;sensor_type;location;lat;lon;timestamp;P1;P2;P0
78678;PMS5003;67994;59.334;13.528;2023-09-19T00:00:00;35.9;30.8;
78678;PMS5003;67994;59.334;13.528;2023-09-19T00:01:00;35.9;30.8;
78678;PMS5003;67994;59.334;13.528;2023-09-19T00:02:00;35.9;30.8;
78678;PMS5003;67994;59.334;13.528;2023-09-19T00:03:00;34.1;30.1;
78678;PMS5003;67994;59.334;13.528;2023-09-19T00:04:00;34.1;30.1;
78678;PMS5003;67994;59.334;13.528;2023-09-19T00:05:00;34.1;30.1;
78678;PMS5003;67994;59.334;13.528;2023-09-19T00:06:00;34.1;30.1;
78678;PMS5003;67994;59.334;13.528;2023-09-19T00:07:00;34.1;30.1;
78678;PMS5003;67994;59.334;13.528;2023-09-19T00:08:00;33.9;32.4;
78678;PMS5003;67994;59.334;13.528;2023-09-19T00:09:00;33.9;32.4;
78678;PMS5003;67994;59.334;13.528;2023-09-19T00:10:00;33.9;32.4;
78678;PMS5003;67994;59.334;13.528;2023-09-19T00:11:00;33.9;32.4;
78678;PMS5003;67994;59.334;13.528;2023-09-19T00:12:00;33.9;32.4;
78678;PMS5003;67994;59.334;13.528;2023-09-19T00:13:00;28.6;28.3;
78678;PMS5003;67994;59.334;13.528;2023-09-19T00:14:00;28.6;28.3;
78678;PMS5003;67994;59.334;13.528;2023-09-19T00:15:00;28.6;28.3;
78678;PMS5003;67994;59.334;13.528;2023-09-19T00:16:00;28.6;28.3;
78678;PMS5003;67994;59.334;13.528;2023-09-19T00:17:00;28.6;28.3;
78678;PMS5003;67994;59.334;13.528;2023-09-19T00:18:00;40.3;35.8;
78678;PMS5003;67994;59.334;13.528;2023-09-19T00:19:00;40.3;35.8;
78678;PMS5003;67994;59.334;13.528;2023-09-19T00:20:00;40.3;35.8;
78678;PMS5003;67994;59.334;13.528;2023-09-19T00:21:00;40.3;35.8;
78678;PMS5003;67994;59.334;13.528;2023-09-19T00:22:00;40.3;35.8;
78678;PMS5003;67994;59.334;13.528;2023-09-19T00:23:00;32.5;31.3;
78678;PMS5003;67994;59.334;13.528;2023-09-19T00:24:00;32.5;31.3;
78678;PMS5003;67994;59.334;13.528;2023-09-19T00:25:00;32.5;31.3;
78678;PMS5003;67994;59.334;13.528;2023-09-19T00:26:00;32.5;31.3;
78678;PMS5003;67994;59.334;13.528;2023-09-19T00:27:00;32.5;31.3;
78678;PMS5003;67994;59.334;13.528;2023-09-19T00:28:00;36.1;33.5;
78678;PMS5003;67994;59.334;13.528;2023-09-19T00:29:00;36.1;33.5;
78678;PMS5003;67994;59.334;13.528;2023-09-19T00:30:00;36.1;33.5;
78678;PMS5003;67994;59.334;13.528;2023-09-19T00:31:00;36.1;33.5;
78678;PMS5003;67994;59.334;13.528;2023-09-19T00:32:00;36.1;33.5;
78678;PMS5003;67994;59.334;13.528;2023-09-19T00:33:00;30.5;28.6;
78678;PMS5003;67994;59.334;13.528;2023-09-19T00:34:00;30.5;28.6;
78678;PMS5003;67994;59.334;13.528;2023-09-19T00:35:00;30.5;28.6;
78678;PMS5003;67994;59.334;13.528;2023-09-19T00:36:00;30.5;28.6;
78678;PMS5003;67994;59.334;13.528;2023-09-19T00:37:00;30.5;28.6;
78678;PMS5003;67994;59.334;13.528;2023-09-19T00:38:00;32.3;27.9;
78678;PMS5003;67994;59.334;13.528;2023-09-19T00:39:00;32.3;27.9;
78678;PMS5003;67994;59.334;13.528;2023-09-19T00:40:00;32.3;27.9;
78678;PMS5003;67994;59.334;13.528;2023-09-19T00:41:00;32.3;27.9;
78678;PMS5003;67994;59.334;13.528;2023-09-19T00:42:00;32.3;27.9;
78678;PMS5003;67994;59.334;13.528;2023-09-19T00:43:00;34.1;30.6;
78678;PMS5003;67994;59.334;13.528;2023-09-19T00:44:00;34.1;30.6;
78678;PMS5003;67994;59.334;13.528;2023-09-19T00:45:00;34.1;30.6;
78678;PMS5003;67994;59.334;13.528;2023-09-19T00:46:00;34.1;30.6;
78678;PMS5003;67994;59.334;13.528;2023-09-19T00:47:00;34.1;30.6;
78678;PMS5003;67994;59.334;13.528;2023-09-19T00:48:00;33.2;31.2;
78678;PMS5003;67994;59.334;13.528;2023-09-19T00:49:00;33.2;31.2;
78678;PMS5003;67994;59.334;13.528;2023-09-19T00:50:00;33.2;31.2;
78678;PMS5003;67994;59.334;13.528;2023-09-19T00:51:02;33.2;31.2;
78678;PMS5003;67994;59.334;13.528;2023-09-19T00:52:00;33.2;31.2;
78678;PMS5003;67994;59.334;13.528;2023-09-19T00:53:00;32.5;30.8;
78678;PMS5003;67994;59.334;13.528;2023-09-19T00:54:00;32.5;30.8;
78678;PMS5003;67994;59.334;13.528;2023-09-19T00:55:00;32.5;30.8;
78678;PMS5003;67994;59.334;13.528;2023-09-19T00:56:01;32.5;30.8;
78678;PMS5003;67994;59.334;13.528;2023-09-19T00:57:00;32.5;30.8;
78678;PMS5003;67994;59.334;13.528;2023-09-19T00:58:00;40.1;34.5;
78678;PMS5003;67994;59.334;13.528;2023-09-19T00:59:00;40.1;34.5;
78678;PMS5003;67994;59.334;13.528;2023-09-19T01:00:00;40.1;34.5;
78678;PMS5003;67994;59.334;13.528;2023-09-19T01:01:01;40.1;34.5;
78678;PMS5003;67994;59.334;13.528;2023-09-19T01:02:00;40.1;34.5;
78678;PMS5003;67994;59.334;13.528;2023-09-19T01:03:00;35.0;33.4;
78678;PMS5003;67994;59.334;13.528;2023-09-19T01:04:00;35.0;33.4;
78678;PMS5003;67994;59.334;13.528;2023-09-19T01:05:00;35.0;33.4;
78678;PMS5003;67994;59.334;13.528;2023-09-19T01:06:00;35.0;33.4;
78678;PMS5003;67994;59.334;13.528;2023-09-19T01:07:00;35.0;33.4;
78678;PMS5003;67994;59.334;13.528;2023-09-19T01:08:00;47.4;37.4;
78678;PMS5003;67994;59.334;13.528;2023-09-19T01:09:00;47.4;37.4;
78678;PMS5003;67994;59.334;13.528;2023-09-19T01:10:00;47.4;37.4;
78678;PMS5003;67994;59.334;13.528;2023-09-19T01:11:10;47.4;37.4;
78678;PMS5003;67994;59.334;13.528;2023-09-19T01:12:01;47.4;37.4;
78678;PMS5003;67994;59.334;13.528;2023-09-19T01:13:02;32.8;30.4;
78678;PMS5003;67994;59.334;13.528;2023-09-19T01:14:02;32.8;30.4;
78678;PMS5003;67994;59.334;13.528;2023-09-19T01:15:02;32.8;30.4;
78678;PMS5003;67994;59.334;13.528;2023-09-19T01:16:03;32.8;30.4;
78678;PMS5003;67994;59.334;13.528;2023-09-19T01:17:01;32.8;30.4;
78678;PMS5003;67994;59.334;13.528;2023-09-19T01:18:02;36.7;33.1;
78678;PMS5003;67994;59.334;13.528;2023-09-19T01:19:03;36.7;33.1;
78678;PMS5003;67994;59.334;13.528;2023-09-19T01:20:08;36.7;33.1;
78678;PMS5003;67994;59.334;13.528;2023-09-19T01:21:02;36.7;33.1;
78678;PMS5003;67994;59.334;13.528;2023-09-19T01:22:02;36.7;33.1;
78678;PMS5003;67994;59.334;13.528;2023-09-19T01:23:03;38.7;34.6;
78678;PMS5003;67994;59.334;13.528;2023-09-19T01:24:09;38.7;34.6;
78678;PMS5003;67994;59.334;13.528;2023-09-19T01:26:05;38.7;34.6;
78678;PMS5003;67994;59.334;13.528;2023-09-19T01:27:06;38.7;34.6;
78678;PMS5003;67994;59.334;13.528;2023-09-19T01:28:06;32.9;30.0;
78678;PMS5003;67994;59.334;13.528;2023-09-19T01:29:01;32.9;30.0;
78678;PMS5003;67994;59.334;13.528;2023-09-19T01:30:06;32.9;30.0;
78678;PMS5003;67994;59.334;13.528;2023-09-19T01:31:00;32.9;30.0;
78678;PMS5003;67994;59.334;13.528;2023-09-19T01:32:01;32.9;30.0;
78678;PMS5003;67994;59.334;13.528;2023-09-19T01:33:00;35.1;33.1;
78678;PMS5003;67994;59.334;13.528;2023-09-19T01:34:01;35.1;33.1;
78678;PMS5003;67994;59.334;13.528;2023-09-19T01:35:00;35.1;33.1;
78678;PMS5003;67994;59.334;13.528;2023-09-19T01:36:00;35.1;33.1;
78678;PMS5003;67994;59.334;13.528;2023-09-19T01:37:00;35.1;33.1;
78678;PMS5003;67994;59.334;13.528;2023-09-19T01:38:00;35.7;32.9;
78678;PMS5003;67994;59.334;13.528;2023-09-19T01:39:00;35.7;32.9;
78678;PMS5003;67994;59.334;13.528;2023-09-19T01:40:01;35.7;32.9;
78678;PMS5003;67994;59.334;13.528;2023-09-19T01:41:02;35.7;32.9;
78678;PMS5003;67994;59.334;13.528;2023-09-19T01:42:02;35.7;32.9;
78678;PMS5003;67994;59.334;13.528;2023-09-19T01:43:03;35.3;32.6;
78678;PMS5003;67994;59.334;13.528;2023-09-19T01:44:00;35.3;32.6;
78678;PMS5003;67994;59.334;13.528;2023-09-19T01:45:03;35.3;32.6;
78678;PMS5003;67994;59.334;13.528;2023-09-19T01:46:02;35.3;32.6;
78678;PMS5003;67994;59.334;13.528;2023-09-19T01:47:01;35.3;32.6;
78678;PMS5003;67994;59.334;13.528;2023-09-19T01:48:02;33.8;30.6;
78678;PMS5003;67994;59.334;13.528;2023-09-19T01:49:03;33.8;30.6;
78678;PMS5003;67994;59.334;13.528;2023-09-19T01:50:02;33.8;30.6;
78678;PMS5003;67994;59.334;13.528;2023-09-19T01:51:01;33.8;30.6;
78678;PMS5003;67994;59.334;13.528;2023-09-19T01:52:02;33.8;30.6;
78678;PMS5003;67994;59.334;13.528;2023-09-19T01:53:02;36.5;34.7;
78678;PMS5003;67994;59.334;13.528;2023-09-19T01:54:00;36.5;34.7;
78678;PMS5003;67994;59.334;13.528;2023-09-19T01:55:01;36.5;34.7;
78678;PMS5003;67994;59.334;13.528;2023-09-19T01:56:00;36.5;34.7;
78678;PMS5003;67994;59.334;13.528;2023-09-19T01:57:01;36.5;34.7;
78678;PMS5003;67994;59.334;13.528;2023-09-19T01:58:01;43.1;35.0;
78678;PMS5003;67994;59.334;13.528;2023-09-19T01:59:02;43.1;35.0;
78678;PMS5003;67994;59.334;13.528;2023-09-19T02:00:01;43.1;35.0;
78678;PMS5003;67994;59.334;13.528;2023-09-19T02:01:00;43.1;35.0;
78678;PMS5003;67994;59.334;13.528;2023-09-19T02:02:00;43.1;35.0;
78678;PMS5003;67994;59.334;13.528;2023-09-19T02:03:00;37.4;34.6;
78678;PMS5003;67994;59.334;13.528;2023-09-19T02:04:00;37.4;34.6;
78678;PMS5003;67994;59.334;13.528;2023-09-19T02:05:00;37.4;34.6;
78678;PMS5003;67994;59.334;13.528;2023-09-19T02:06:00;37.4;34.6;
78678;PMS5003;67994;59.334;13.528;2023-09-19T02:07:00;37.4;34.6;
78678;PMS5003;67994;59.334;13.528;2023-09-19T02:08:00;36.0;30.3;
78678;PMS5003;67994;59.334;13.528;2023-09-19T02:09:00;36.0;30.3;
78678;PMS5003;67994;59.334;13.528;2023-09-19T02:10:00;36.0;30.3;
78678;PMS5003;67994;59.334;13.528;2023-09-19T02:11:00;36.0;30.3;
78678;PMS5003;67994;59.334;13.528;2023-09-19T02:12:00;36.0;30.3;
78678;PMS5003;67994;59.334;13.528;2023-09-19T02:13:00;36.9;33.0;
78678;PMS5003;67994;59.334;13.528;2023-09-19T02:14:00;36.9;33.0;
78678;PMS5003;67994;59.334;13.528;2023-09-19T02:15:00;36.9;33.0;
78678;PMS5003;67994;59.334;13.528;2023-09-19T02:16:00;36.9;33.0;
78678;PMS5003;67994;59.334;13.528;2023-09-19T02:17:00;36.9;33.0;
78678;PMS5003;67994;59.334;13.528;2023-09-19T02:18:00;34.5;32.9;
78678;PMS5003;67994;59.334;13.528;2023-09-19T02:19:00;34.5;32.9;
78678;PMS5003;67994;59.334;13.528;2023-09-19T02:20:00;34.5;32.9;
78678;PMS5003;67994;59.334;13.528;2023-09-19T02:21:00;34.5;32.9;
78678;PMS5003;67994;59.334;13.528;2023-09-19T02:22:00;34.5;32.9;
78678;PMS5003;67994;59.334;13.528;2023-09-19T02:23:00;42.6;37.8;
78678;PMS5003;67994;59.334;13.528;2023-09-19T02:24:00;42.6;37.8;
78678;PMS5003;67994;59.334;13.528;2023-09-19T02:25:00;42.6;37.8;
78678;PMS5003;67994;59.334;13.528;2023-09-19T02:26:00;42.6;37.8;
78678;PMS5003;67994;59.334;13.528;2023-09-19T02:27:00;42.6;37.8;
78678;PMS5003;67994;59.334;13.528;2023-09-19T02:28:00;37.2;32.6;
78678;PMS5003;67994;59.334;13.528;2023-09-19T02:29:00;37.2;32.6;
78678;PMS5003;67994;59.334;13.528;2023-09-19T02:30:00;37.2;32.6;
78678;PMS5003;67994;59.334;13.528;2023-09-19T02:31:00;37.2;32.6;
78678;PMS5003;67994;59.334;13.528;2023-09-19T02:32:00;37.2;32.6;
78678;PMS5003;67994;59.334;13.528;2023-09-19T02:33:00;40.0;34.1;
78678;PMS5003;67994;59.334;13.528;2023-09-19T02:34:00;40.0;34.1;
78678;PMS5003;67994;59.334;13.528;2023-09-19T02:35:00;40.0;34.1;
78678;PMS5003;67994;59.334;13.528;2023-09-19T02:36:00;40.0;34.1;
78678;PMS5003;67994;59.334;13.528;2023-09-19T02:37:00;40.0;34.1;
78678;PMS5003;67994;59.334;13.528;2023-09-19T02:38:00;41.9;31.8;
78678;PMS5003;67994;59.334;13.528;2023-09-19T02:39:00;41.9;31.8;
78678;PMS5003;67994;59.334;13.528;2023-09-19T02:40:00;41.9;31.8;
78678;PMS5003;67994;59.334;13.528;2023-09-19T02:41:00;41.9;31.8;
78678;PMS5003;67994;59.334;13.528;2023-09-19T02:42:00;41.9;31.8;
78678;PMS5003;67994;59.334;13.528;2023-09-19T02:43:00;33.5;32.0;
78678;PMS5003;67994;59.334;13.528;2023-09-19T02:44:00;33.5;32.0;
78678;PMS5003;67994;59.334;13.528;2023-09-19T02:45:00;33.5;32.0;
78678;PMS5003;67994;59.334;13.528;2023-09-19T02:46:00;33.5;32.0;
78678;PMS5003;67994;59.334;13.528;2023-09-19T02:47:00;33.5;32.0;
78678;PMS5003;67994;59.334;13.528;2023-09-19T02:48:00;31.3;30.2;
78678;PMS5003;67994;59.334;13.528;2023-09-19T02:49:00;31.3;30.2;
78678;PMS5003;67994;59.334;13.528;2023-09-19T02:50:00;31.3;30.2;
78678;PMS5003;67994;59.334;13.528;2023-09-19T02:51:00;31.3;30.2;
78678;PMS5003;67994;59.334;13.528;2023-09-19T02:52:00;31.3;30.2;
78678;PMS5003;67994;59.334;13.528;2023-09-19T02:53:00;31.8;29.4;
78678;PMS5003;67994;59.334;13.528;2023-09-19T02:54:00;31.8;29.4;
78678;PMS5003;67994;59.334;13.528;2023-09-19T02:55:00;31.8;29.4;
78678;PMS5003;67994;59.334;13.528;2023-09-19T02:56:00;31.8;29.4;
78678;PMS5003;67994;59.334;13.528;2023-09-19T02:57:00;31.8;29.4;
78678;PMS5003;67994;59.334;13.528;2023-09-19T02:58:00;33.0;27.9;
78678;PMS5003;67994;59.334;13.528;2023-09-19T02:59:00;33.0;27.9;
78678;PMS5003;67994;59.334;13.528;2023-09-19T03:00:00;33.0;27.9;
78678;PMS5003;67994;59.334;13.528;2023-09-19T03:01:07;33.0;27.9;
78678;PMS5003;67994;59.334;13.528;2023-09-19T03:02:00;33.0;27.9;
78678;PMS5003;67994;59.334;13.528;2023-09-19T03:03:00;34.9;32.6;
78678;PMS5003;67994;59.334;13.528;2023-09-19T03:04:00;34.9;32.6;
78678;PMS5003;67994;59.334;13.528;2023-09-19T03:05:00;34.9;32.6;
78678;PMS5003;67994;59.334;13.528;2023-09-19T03:06:00;34.9;32.6;
78678;PMS5003;67994;59.334;13.528;2023-09-19T03:07:00;34.9;32.6;
78678;PMS5003;67994;59.334;13.528;2023-09-19T03:08:00;37.6;33.8;
78678;PMS5003;67994;59.334;13.528;2023-09-19T03:09:00;37.6;33.8;
78678;PMS5003;67994;59.334;13.528;2023-09-19T03:10:00;37.6;33.8;
78678;PMS5003;67994;59.334;13.528;2023-09-19T03:11:00;37.6;33.8;
78678;PMS5003;67994;59.334;13.528;2023-09-19T03:12:00;37.6;33.8;
78678;PMS5003;67994;59.334;13.528;2023-09-19T03:13:00;39.7;34.0;
78678;PMS5003;67994;59.334;13.528;2023-09-19T03:14:00;39.7;34.0;
78678;PMS5003;67994;59.334;13.528;2023-09-19T03:15:00;39.7;34.0;
78678;PMS5003;67994;59.334;13.528;2023-09-19T03:16:00;39.7;34.0;
78678;PMS5003;67994;59.334;13.528;2023-09-19T03:17:00;39.7;34.0;
78678;PMS5003;67994;59.334;13.528;2023-09-19T03:18:00;41.4;34.9;
78678;PMS5003;67994;59.334;13.528;2023-09-19T03:19:00;41.4;34.9;
78678;PMS5003;67994;59.334;13.528;2023-09-19T03:20:00;41.4;34.9;
78678;PMS5003;67994;59.334;13.528;2023-09-19T03:21:00;41.4;34.9;
78678;PMS5003;67994;59.334;13.528;2023-09-19T03:22:00;41.4;34.9;
78678;PMS5003;67994;59.334;13.528;2023-09-19T03:23:00;42.7;36.7;
78678;PMS5003;67994;59.334;13.528;2023-09-19T03:24:00;42.7;36.7;
78678;PMS5003;67994;59.334;13.528;2023-09-19T03:25:00;42.7;36.7;
78678;PMS5003;67994;59.334;13.528;2023-09-19T03:26:00;42.7;36.7;
78678;PMS5003;67994;59.334;13.528;2023-09-19T03:27:00;42.7;36.7;
78678;PMS5003;67994;59.334;13.528;2023-09-19T03:28:00;37.0;33.0;
78678;PMS5003;67994;59.334;13.528;2023-09-19T03:29:03;37.0;33.0;
78678;PMS5003;67994;59.334;13.528;2023-09-19T03:30:00;37.0;33.0;
78678;PMS5003;67994;59.334;13.528;2023-09-19T03:31:00;37.0;33.0;
78678;PMS5003;67994;59.334;13.528;2023-09-19T03:32:00;37.0;33.0;
78678;PMS5003;67994;59.334;13.528;2023-09-19T03:33:00;37.7;34.5;
78678;PMS5003;67994;59.334;13.528;2023-09-19T03:34:00;37.7;34.5;
78678;PMS5003;67994;59.334;13.528;2023-09-19T03:35:00;37.7;34.5;
78678;PMS5003;67994;59.334;13.528;2023-09-19T03:36:00;37.7;34.5;
78678;PMS5003;67994;59.334;13.528;2023-09-19T03:37:00;37.7;34.5;
78678;PMS5003;67994;59.334;13.528;2023-09-19T03:38:00;41.9;34.3;
78678;PMS5003;67994;59.334;13.528;2023-09-19T03:39:00;41.9;34.3;
78678;PMS5003;67994;59.334;13.528;2023-09-19T03:40:00;41.9;34.3;
78678;PMS5003;67994;59.334;13.528;2023-09-19T03:41:00;41.9;34.3;
78678;PMS5003;67994;59.334;13.528;2023-09-19T03:42:00;41.9;34.3;
78678;PMS5003;67994;59.334;13.528;2023-09-19T03:43:00;33.0;29.6;
78678;PMS5003;67994;59.334;13.528;2023-09-19T03:44:00;33.0;29.6;
78678;PMS5003;67994;59.334;13.528;2023-09-19T03:45:00;33.0;29.6;
78678;PMS5003;67994;59.334;13.528;2023-09-19T03:46:01;33.0;29.6;
78678;PMS5003;67994;59.334;13.528;2023-09-19T03:47:00;33.0;29.6;
78678;PMS5003;67994;59.334;13.528;2023-09-19T03:48:01;31.7;29.7;
78678;PMS5003;67994;59.334;13.528;2023-09-19T03:49:00;31.7;29.7;
78678;PMS5003;67994;59.334;13.528;2023-09-19T03:50:00;31.7;29.7;
78678;PMS5003;67994;59.334;13.528;2023-09-19T03:51:00;31.7;29.7;
78678;PMS5003;67994;59.334;13.528;2023-09-19T03:52:00;31.7;29.7;
78678;PMS5003;67994;59.334;13.528;2023-09-19T03:53:00;36.6;35.4;
78678;PMS5003;67994;59.334;13.528;2023-09-19T03:54:00;36.6;35.4;
78678;PMS5003;67994;59.334;13.528;2023-09-19T03:55:00;36.6;35.4;
78678;PMS5003;67994;59.334;13.528;2023-09-19T03:56:00;36.6;35.4;
78678;PMS5003;67994;59.334;13.528;2023-09-19T03:57:00;36.6;35.4;
78678;PMS5003;67994;59.334;13.528;2023-09-19T03:58:00;37.5;33.4;
78678;PMS5003;67994;59.334;13.528;2023-09-19T03:59:00;37.5;33.4;
78678;PMS5003;67994;59.334;13.528;2023-09-19T04:00:00;37.5;33.4;
78678;PMS5003;67994;59.334;13.528;2023-09-19T04:01:00;37.5;33.4;
78678;PMS5003;67994;59.334;13.528;2023-09-19T04:02:00;37.5;33.4;
78678;PMS5003;67994;59.334;13.528;2023-09-19T04:03:00;34.7;32.7;
78678;PMS5003;67994;59.334;13.528;2023-09-19T04:04:00;34.7;32.7;
78678;PMS5003;67994;59.334;13.528;2023-09-19T04:05:00;34.7;32.7;
78678;PMS5003;67994;59.334;13.528;2023-09-19T04:06:00;34.7;32.7;
78678;PMS5003;67994;59.334;13.528;2023-09-19T04:07:00;34.7;32.7;
78678;PMS5003;67994;59.334;13.528;2023-09-19T04:08:00;36.1;34.1;
78678;PMS5003;67994;59.334;13.528;2023-09-19T04:09:00;36.1;34.1;
78678;PMS5003;67994;59.334;13.528;2023-09-19T04:10:00;36.1;34.1;
78678;PMS5003;67994;59.334;13.528;2023-09-19T04:11:00;36.1;34.1;
78678;PMS5003;67994;59.334;13.528;2023-09-19T04:12:00;36.1;34.1;
78678;PMS5003;67994;59.334;13.528;2023-09-19T04:13:00;41.2;36.0;
78678;PMS5003;67994;59.334;13.528;2023-09-19T04:14:02;41.2;36.0;
78678;PMS5003;67994;59.334;13.528;2023-09-19T04:15:00;41.2;36.0;
78678;PMS5003;67994;59.334;13.528;2023-09-19T04:16:00;41.2;36.0;
78678;PMS5003;67994;59.334;13.528;2023-09-19T04:17:00;41.2;36.0;
78678;PMS5003;67994;59.334;13.528;2023-09-19T04:18:00;35.6;32.3;
78678;PMS5003;67994;59.334;13.528;2023-09-19T04:19:00;35.6;32.3;
78678;PMS5003;67994;59.334;13.528;2023-09-19T04:20:00;35.6;32.3;
78678;PMS5003;67994;59.334;13.528;2023-09-19T04:21:00;35.6;32.3;
78678;PMS5003;67994;59.334;13.528;2023-09-19T04:22:00;35.6;32.3;
78678;PMS5003;67994;59.334;13.528;2023-09-19T04:23:00;35.8;33.0;
78678;PMS5003;67994;59.334;13.528;2023-09-19T04:24:00;35.8;33.0;
78678;PMS5003;67994;59.334;13.528;2023-09-19T04:25:00;35.8;33.0;
78678;PMS5003;67994;59.334;13.528;2023-09-19T04:26:00;35.8;33.0;
78678;PMS5003;67994;59.334;13.528;2023-09-19T04:27:00;35.8;33.0;
78678;PMS5003;67994;59.334;13.528;2023-09-19T04:28:00;39.4;34.6;
78678;PMS5003;67994;59.334;13.528;2023-09-19T04:29:00;39.4;34.6;
78678;PMS5003;67994;59.334;13.528;2023-09-19T04:30:00;39.4;34.6;
78678;PMS5003;67994;59.334;13.528;2023-09-19T04:31:00;39.4;34.6;
78678;PMS5003;67994;59.334;13.528;2023-09-19T04:32:00;39.4;34.6;
78678;PMS5003;67994;59.334;13.528;2023-09-19T04:33:00;34.2;31.2;
78678;PMS5003;67994;59.334;13.528;2023-09-19T04:34:00;34.2;31.2;
78678;PMS5003;67994;59.334;13.528;2023-09-19T04:35:00;34.2;31.2;
78678;PMS5003;67994;59.334;13.528;2023-09-19T04:36:00;34.2;31.2;
78678;PMS5003;67994;59.334;13.528;2023-09-19T04:37:00;34.2;31.2;
78678;PMS5003;67994;59.334;13.528;2023-09-19T04:38:00;40.8;35.0;
78678;PMS5003;67994;59.334;13.528;2023-09-19T04:39:00;40.8;35.0;
78678;PMS5003;67994;59.334;13.528;2023-09-19T04:40:00;40.8;35.0;
78678;PMS5003;67994;59.334;13.528;2023-09-19T04:41:00;40.8;35.0;
78678;PMS5003;67994;59.334;13.528;2023-09-19T04:42:00;40.8;35.0;
78678;PMS5003;67994;59.334;13.528;2023-09-19T04:43:00;39.4;33.7;
78678;PMS5003;67994;59.334;13.528;2023-09-19T04:44:00;39.4;33.7;
78678;PMS5003;67994;59.334;13.528;2023-09-19T04:45:00;39.4;33.7;
78678;PMS5003;67994;59.334;13.528;2023-09-19T04:46:00;39.4;33.7;
78678;PMS5003;67994;59.334;13.528;2023-09-19T04:47:00;39.4;33.7;
78678;PMS5003;67994;59.334;13.528;2023-09-19T04:48:00;40.8;36.1;
78678;PMS5003;67994;59.334;13.528;2023-09-19T04:49:00;40.8;36.1;
78678;PMS5003;67994;59.334;13.528;2023-09-19T04:50:00;40.8;36.1;
78678;PMS5003;67994;59.334;13.528;2023-09-19T04:51:00;40.8;36.1;
78678;PMS5003;67994;59.334;13.528;2023-09-19T04:52:00;40.8;36.1;
78678;PMS5003;67994;59.334;13.528;2023-09-19T04:53:00;37.0;34.5;
78678;PMS5003;67994;59.334;13.528;2023-09-19T04:54:00;37.0;34.5;
78678;PMS5003;67994;59.334;13.528;2023-09-19T04:55:00;37.0;34.5;
78678;PMS5003;67994;59.334;13.528;2023-09-19T04:56:00;37.0;34.5;
78678;PMS5003;67994;59.334;13.528;2023-09-19T04:57:00;37.0;34.5;
78678;PMS5003;67994;59.334;13.528;2023-09-19T04:58:00;33.6;30.4;
78678;PMS5003;67994;59.334;13.528;2023-09-19T04:59:00;33.6;30.4;
78678;PMS5003;67994;59.334;13.528;2023-09-19T05:00:00;33.6;30.4;
78678;PMS5003;67994;59.334;13.528;2023-09-19T05:01:00;33.6;30.4;
78678;PMS5003;67994;59.334;13.528;2023-09-19T05:02:00;33.6;30.4;
78678;PMS5003;67994;59.334;13.528;2023-09-19T05:03:00;36.7;32.7;
78678;PMS5003;67994;59.334;13.528;2023-09-19T05:04:00;36.7;32.7;
78678;PMS5003;67994;59.334;13.528;2023-09-19T05:05:00;36.7;32.7;
78678;PMS5003;67994;59.334;13.528;2023-09-19T05:06:00;36.7;32.7;
78678;PMS5003;67994;59.334;13.528;2023-09-19T05:07:00;36.7;32.7;
78678;PMS5003;67994;59.334;13.528;2023-09-19T05:08:00;40.7;36.7;
78678;PMS5003;67994;59.334;13.528;2023-09-19T05:09:00;40.7;36.7;
78678;PMS5003;67994;59.334;13.528;2023-09-19T05:10:00;40.7;36.7;
78678;PMS5003;67994;59.334;13.528;2023-09-19T05:11:01;40.7;36.7;
78678;PMS5003;67994;59.334;13.528;2023-09-19T05:12:00;40.7;36.7;
78678;PMS5003;67994;59.334;13.528;2023-09-19T05:13:00;31.9;29.8;
78678;PMS5003;67994;59.334;13.528;2023-09-19T05:14:00;31.9;29.8;
78678;PMS5003;67994;59.334;13.528;2023-09-19T05:15:00;31.9;29.8;
78678;PMS5003;67994;59.334;13.528;2023-09-19T05:16:00;31.9;29.8;
78678;PMS5003;67994;59.334;13.528;2023-09-19T05:17:00;31.9;29.8;
78678;PMS5003;67994;59.334;13.528;2023-09-19T05:18:00;37.9;35.8;
78678;PMS5003;67994;59.334;13.528;2023-09-19T05:19:00;37.9;35.8;
78678;PMS5003;67994;59.334;13.528;2023-09-19T05:20:00;37.9;35.8;
78678;PMS5003;67994;59.334;13.528;2023-09-19T05:21:01;37.9;35.8;
78678;PMS5003;67994;59.334;13.528;2023-09-19T05:22:00;37.9;35.8;
78678;PMS5003;67994;59.334;13.528;2023-09-19T05:23:00;37.3;32.2;
78678;PMS5003;67994;59.334;13.528;2023-09-19T05:24:00;37.3;32.2;
78678;PMS5003;67994;59.334;13.528;2023-09-19T05:25:00;37.3;32.2;
78678;PMS5003;67994;59.334;13.528;2023-09-19T05:26:00;37.3;32.2;
78678;PMS5003;67994;59.334;13.528;2023-09-19T05:27:00;37.3;32.2;
78678;PMS5003;67994;59.334;13.528;2023-09-19T05:28:00;38.0;35.2;
78678;PMS5003;67994;59.334;13.528;2023-09-19T05:29:00;38.0;35.2;
78678;PMS5003;67994;59.334;13.528;2023-09-19T05:30:00;38.0;35.2;
78678;PMS5003;67994;59.334;13.528;2023-09-19T05:31:00;38.0;35.2;
78678;PMS5003;67994;59.334;13.528;2023-09-19T05:32:00;38.0;35.2;
78678;PMS5003;67994;59.334;13.528;2023-09-19T05:33:00;30.1;27.0;
78678;PMS5003;67994;59.334;13.528;2023-09-19T05:34:00;30.1;27.0;
78678;PMS5003;67994;59.334;13.528;2023-09-19T05:35:00;30.1;27.0;
78678;PMS5003;67994;59.334;13.528;2023-09-19T05:36:00;30.1;27.0;
78678;PMS5003;67994;59.334;13.528;2023-09-19T05:37:00;30.1;27.0;
78678;PMS5003;67994;59.334;13.528;2023-09-19T05:38:00;33.1;29.0;
78678;PMS5003;67994;59.334;13.528;2023-09-19T05:39:00;33.1;29.0;
78678;PMS5003;67994;59.334;13.528;2023-09-19T05:40:00;33.1;29.0;
78678;PMS5003;67994;59.334;13.528;2023-09-19T05:41:00;33.1;29.0;
78678;PMS5003;67994;59.334;13.528;2023-09-19T05:42:00;33.1;29.0;
78678;PMS5003;67994;59.334;13.528;2023-09-19T05:43:00;29.2;25.9;
78678;PMS5003;67994;59.334;13.528;2023-09-19T05:44:00;29.2;25.9;
78678;PMS5003;67994;59.334;13.528;2023-09-19T05:45:00;29.2;25.9;
78678;PMS5003;67994;59.334;13.528;2023-09-19T05:46:00;29.2;25.9;
78678;PMS5003;67994;59.334;13.528;2023-09-19T05:47:00;29.2;25.9;
78678;PMS5003;67994;59.334;13.528;2023-09-19T05:48:07;30.4;27.8;
78678;PMS5003;67994;59.334;13.528;2023-09-19T05:49:00;30.4;27.8;
78678;PMS5003;67994;59.334;13.528;2023-09-19T05:50:00;30.4;27.8;
78678;PMS5003;67994;59.334;13.528;2023-09-19T05:51:00;30.4;27.8;
78678;PMS5003;67994;59.334;13.528;2023-09-19T05:52:00;30.4;27.8;
78678;PMS5003;67994;59.334;13.528;2023-09-19T05:53:00;27.6;23.7;
78678;PMS5003;67994;59.334;13.528;2023-09-19T05:54:00;27.6;23.7;
78678;PMS5003;67994;59.334;13.528;2023-09-19T05:55:00;27.6;23.7;
78678;PMS5003;67994;59.334;13.528;2023-09-19T05:56:00;27.6;23.7;
78678;PMS5003;67994;59.334;13.528;2023-09-19T05:57:00;27.6;23.7;
78678;PMS5003;67994;59.334;13.528;2023-09-19T05:58:00;28.7;27.2;
78678;PMS5003;67994;59.334;13.528;2023-09-19T05:59:00;28.7;27.2;
78678;PMS5003;67994;59.334;13.528;2023-09-19T06:00:00;28.7;27.2;
78678;PMS5003;67994;59.334;13.528;2023-09-19T06:01:00;28.7;27.2;
78678;PMS5003;67994;59.334;13.528;2023-09-19T06:02:00;28.7;27.2;
78678;PMS5003;67994;59.334;13.528;2023-09-19T06:03:00;24.7;24.1;
78678;PMS5003;67994;59.334;13.528;2023-09-19T06:04:00;24.7;24.1;
78678;PMS5003;67994;59.334;13.528;2023-09-19T06:05:00;24.7;24.1;
78678;PMS5003;67994;59.334;13.528;2023-09-19T06:06:00;24.7;24.1;
78678;PMS5003;67994;59.334;13.528;2023-09-19T06:07:00;24.7;24.1;
78678;PMS5003;67994;59.334;13.528;2023-09-19T06:08:00;31.6;29.3;